createdAt,value
2022-11-15T00:00:35.976Z,39.30
2022-11-15T00:03:57.711Z,41.88
2022-11-15T00:07:48.193Z,41.35
2022-11-15T00:11:03.355Z,43.17
2022-11-15T00:14:26.376Z,42.03
2022-11-15T00:17:51.712Z,40.33
2022-11-15T00:21:15.581Z,39.38
2022-11-15T00:24:37.273Z,39.78
2022-11-15T00:27:59.606Z,38.22
2022-11-15T00:31:22.901Z,41.65
2022-11-15T00:34:44.677Z,41.00
2022-11-15T00:38:06.362Z,41.47
2022-11-15T00:41:28.176Z,40.05
2022-11-15T00:44:50.204Z,39.80
2022-11-15T00:48:13.575Z,38.28
2022-11-15T00:51:35.576Z,39.65
2022-11-15T00:54:57.428Z,38.50
2022-11-15T00:58:19.353Z,39.67
2022-11-15T01:01:41.228Z,41.95
2022-11-15T01:05:05.078Z,40.15
2022-11-15T01:08:26.936Z,41.92
2022-11-15T01:11:48.908Z,42.17
2022-11-15T01:15:11.175Z,42.13
2022-11-15T01:18:33.094Z,45.22
2022-11-15T01:21:56.468Z,44.35
2022-11-15T01:25:18.579Z,45.10
2022-11-15T01:28:42.668Z,46.67
2022-11-15T01:32:04.858Z,46.08
2022-11-15T01:35:26.577Z,43.05
2022-11-15T01:38:55.022Z,44.72
2022-11-15T01:42:17.128Z,42.63
2022-11-15T01:45:39.222Z,39.42
2022-11-15T01:49:06.011Z,41.03
2022-11-15T01:52:30.970Z,42.03
2022-11-15T01:55:54.405Z,39.47
2022-11-15T01:59:16.804Z,38.53
2022-11-15T02:02:40.220Z,38.88
2022-11-15T02:06:02.056Z,38.63
2022-11-15T02:09:23.767Z,40.53
2022-11-15T02:12:47.639Z,40.75
2022-11-15T02:16:20.455Z,45.50
2022-11-15T02:20:06.499Z,44.72
2022-11-15T02:24:01.394Z,43.80
2022-11-15T02:27:49.582Z,46.50
2022-11-15T02:31:17.571Z,43.58
2022-11-15T02:34:50.309Z,42.75
2022-11-15T02:38:20.042Z,42.13
2022-11-15T02:41:48.834Z,43.83
2022-11-15T02:45:12.733Z,41.70
2022-11-15T02:48:37.271Z,40.67
2022-11-15T02:51:59.231Z,39.50
2022-11-15T02:55:29.547Z,38.35
2022-11-15T02:59:09.347Z,37.33
2022-11-15T03:02:44.271Z,35.33
2022-11-15T03:06:16.633Z,39.03
2022-11-15T03:09:45.200Z,37.80
2022-11-15T03:13:19.329Z,36.75
2022-11-15T03:16:46.538Z,38.58
2022-11-15T03:20:10.806Z,40.40
2022-11-15T03:23:35.420Z,36.17
2022-11-15T03:26:58.827Z,36.97
2022-11-15T03:30:21.119Z,35.10
2022-11-15T03:33:44.671Z,36.17
2022-11-15T03:37:07.815Z,33.10
2022-11-15T03:40:36.773Z,33.28
2022-11-15T03:44:06.594Z,33.78
2022-11-15T03:47:32.534Z,35.88
2022-11-15T03:50:54.709Z,34.58
2022-11-15T03:54:16.327Z,34.95
2022-11-15T03:57:39.641Z,34.42
2022-11-15T04:01:01.639Z,33.20
2022-11-15T04:04:23.550Z,33.15
2022-11-15T04:07:45.484Z,36.13
2022-11-15T04:11:07.416Z,36.83
2022-11-15T04:14:30.476Z,35.28
2022-11-15T04:17:54.178Z,34.83
2022-11-15T04:21:32.861Z,33.90
2022-11-15T04:24:54.734Z,30.80
2022-11-15T04:28:16.875Z,30.23
2022-11-15T04:31:39.936Z,30.70
2022-11-15T04:35:01.707Z,31.75
2022-11-15T04:38:23.257Z,34.90
2022-11-15T04:41:44.884Z,35.38
2022-11-15T04:45:07.015Z,35.28
2022-11-15T04:48:30.204Z,34.38
2022-11-15T04:51:52.058Z,38.60
2022-11-15T04:55:13.897Z,36.60
2022-11-15T04:58:35.806Z,35.72
2022-11-15T05:01:57.750Z,34.72
2022-11-15T05:05:19.975Z,33.20
2022-11-15T05:08:42.028Z,35.00
2022-11-15T05:12:04.186Z,35.30
2022-11-15T05:15:26.288Z,35.15
2022-11-15T05:18:52.219Z,38.72
2022-11-15T05:22:15.563Z,36.80
2022-11-15T05:25:38.911Z,35.22
2022-11-15T05:29:01.347Z,30.70
2022-11-15T05:32:23.590Z,32.88
2022-11-15T05:35:48.828Z,34.03
2022-11-15T05:39:13.001Z,33.50
2022-11-15T05:42:35.663Z,34.13
2022-11-15T05:46:01.857Z,34.85
2022-11-15T05:49:29.371Z,34.83
2022-11-15T05:52:51.488Z,34.05
2022-11-15T05:56:15.933Z,34.88
2022-11-15T05:59:38.334Z,35.83
2022-11-15T06:02:59.961Z,32.00
2022-11-15T06:06:21.609Z,32.95
2022-11-15T06:09:43.586Z,32.33
2022-11-15T06:13:07.528Z,32.88
2022-11-15T06:16:29.959Z,34.28
2022-11-15T06:19:51.826Z,34.90
2022-11-15T06:23:14.279Z,33.55
2022-11-15T06:26:36.409Z,33.60
2022-11-15T06:29:59.703Z,32.10
2022-11-15T06:33:21.779Z,32.88
2022-11-15T06:36:43.798Z,32.83
2022-11-15T06:40:06.012Z,32.38
2022-11-15T06:43:27.946Z,32.40
2022-11-15T06:46:51.116Z,31.65
2022-11-15T06:50:13.016Z,32.05
2022-11-15T06:53:35.294Z,32.10
2022-11-15T06:56:57.244Z,34.53
2022-11-15T07:00:20.285Z,33.10
2022-11-15T07:03:45.069Z,32.67
2022-11-15T07:07:06.840Z,31.92
2022-11-15T07:10:29.247Z,30.45
2022-11-15T07:13:50.765Z,30.20
2022-11-15T07:17:12.528Z,31.05
2022-11-15T07:20:35.703Z,30.25
2022-11-15T07:23:57.468Z,31.55
2022-11-15T07:27:19.732Z,32.53
2022-11-15T07:30:45.195Z,33.80
2022-11-15T07:34:07.280Z,32.20
2022-11-15T07:37:30.755Z,32.33
2022-11-15T07:40:59.699Z,33.70
2022-11-15T07:44:22.113Z,33.65
2022-11-15T07:47:47.668Z,32.05
2022-11-15T07:51:14.218Z,32.65
2022-11-15T07:54:37.855Z,30.45
2022-11-15T07:58:03.809Z,31.55
2022-11-15T08:01:25.399Z,31.83
2022-11-15T08:04:47.302Z,30.58
2022-11-15T08:08:10.098Z,29.80
2022-11-15T08:11:33.415Z,29.52
2022-11-15T08:14:55.247Z,28.15
2022-11-15T08:18:18.493Z,28.42
2022-11-15T08:21:40.440Z,26.33
2022-11-15T08:25:02.709Z,26.33
2022-11-15T08:28:25.968Z,25.23
2022-11-15T08:31:47.781Z,25.60
2022-11-15T08:35:10.467Z,24.42
2022-11-15T08:38:32.739Z,22.85
2022-11-15T08:41:54.628Z,22.90
2022-11-15T08:45:18.536Z,23.05
2022-11-15T08:48:40.675Z,23.80
2022-11-15T08:52:02.586Z,24.27
2022-11-15T08:55:24.964Z,23.73
2022-11-15T08:58:48.921Z,24.98
2022-11-15T09:02:16.040Z,31.17
2022-11-15T09:05:39.044Z,27.95
2022-11-15T09:09:02.549Z,26.95
2022-11-15T09:12:24.849Z,28.27
2022-11-15T09:15:46.820Z,28.80
2022-11-15T09:19:11.901Z,28.63
2022-11-15T09:22:34.484Z,28.92
2022-11-15T09:26:01.301Z,29.90
2022-11-15T09:29:22.895Z,26.80
2022-11-15T09:32:44.688Z,31.88
2022-11-15T09:36:10.608Z,29.10
2022-11-15T09:39:33.267Z,26.23
2022-11-15T09:43:07.366Z,26.17
2022-11-15T09:46:41.499Z,26.33
2022-11-15T09:50:13.183Z,26.35
2022-11-15T09:53:47.942Z,25.92
2022-11-15T09:56:48.305Z,30.88
2022-11-15T10:00:30.931Z,30.30
2022-11-15T10:03:31.401Z,28.50
2022-11-15T10:06:40.905Z,45.78
2022-11-15T10:09:50.073Z,29.67
2022-11-15T10:12:55.156Z,24.90
2022-11-15T10:16:06.666Z,36.60
2022-11-15T10:19:16.716Z,32.50
2022-11-15T10:22:30.586Z,31.65
2022-11-15T10:25:36.640Z,29.10
2022-11-15T10:28:40.101Z,29.98
2022-11-15T10:31:43.826Z,26.95
2022-11-15T10:34:47.440Z,31.95
2022-11-15T10:37:51.266Z,29.58
2022-11-15T10:41:10.056Z,28.02
2022-11-15T10:44:31.125Z,29.33
2022-11-15T10:47:39.150Z,30.30
2022-11-15T10:50:44.605Z,30.02
2022-11-15T10:53:48.721Z,28.88
2022-11-15T10:57:01.697Z,28.23
2022-11-15T11:00:08.939Z,27.85
2022-11-15T11:03:31.803Z,28.30
2022-11-15T11:06:49.480Z,30.15
2022-11-15T11:10:00.544Z,29.73
2022-11-15T11:13:24.170Z,31.73
2022-11-15T11:16:44.279Z,36.00
2022-11-15T11:20:02.018Z,35.08
2022-11-15T11:23:18.402Z,35.85
2022-11-15T11:26:37.720Z,34.40
2022-11-15T11:29:53.829Z,27.67
2022-11-15T11:33:07.448Z,37.63
2022-11-15T11:36:24.265Z,37.85
2022-11-15T11:39:39.956Z,35.55
2022-11-15T11:42:55.116Z,35.78
2022-11-15T11:46:37.059Z,33.38
2022-11-15T11:49:47.048Z,32.78
2022-11-15T11:53:04.020Z,32.80
2022-11-15T11:56:16.872Z,34.28
2022-11-15T11:59:31.120Z,37.97
2022-11-15T12:02:40.592Z,38.33
2022-11-15T12:05:47.130Z,29.77
2022-11-15T12:08:55.830Z,35.92
2022-11-15T12:12:05.169Z,35.60
2022-11-15T12:15:17.898Z,38.50
2022-11-15T12:18:23.037Z,38.35
2022-11-15T12:21:37.036Z,39.10
2022-11-15T12:24:43.755Z,39.25
2022-11-15T12:27:52.113Z,39.88
2022-11-15T12:30:58.464Z,39.17
2022-11-15T12:34:07.489Z,37.67
2022-11-15T12:37:53.686Z,39.65
2022-11-15T12:41:16.183Z,41.70
2022-11-15T12:45:01.158Z,41.80
2022-11-15T12:48:41.908Z,37.38
2022-11-15T12:52:08.577Z,37.15
2022-11-15T12:55:34.186Z,36.47
2022-11-15T12:58:44.472Z,37.60
2022-11-15T13:06:08.803Z,39.47
2022-11-15T13:09:50.958Z,39.72
2022-11-15T13:12:58.976Z,39.67
2022-11-15T13:16:03.533Z,40.75
2022-11-15T13:19:07.039Z,44.10
2022-11-15T13:22:29.552Z,43.78
2022-11-15T13:25:55.276Z,47.53
2022-11-15T13:29:01.595Z,45.70
2022-11-15T13:32:05.054Z,48.72
2022-11-15T13:35:10.091Z,48.20
2022-11-15T13:38:21.102Z,46.50
2022-11-15T13:41:26.272Z,43.97
2022-11-15T13:44:32.909Z,46.95
2022-11-15T13:47:36.219Z,47.70
2022-11-15T13:50:41.894Z,44.60
2022-11-15T13:53:48.709Z,46.63
2022-11-15T13:56:56.877Z,53.75
2022-11-15T14:00:05.885Z,90.05
2022-11-15T14:03:21.408Z,73.13
2022-11-15T14:06:28.134Z,53.08
2022-11-15T14:09:37.854Z,62.22
2022-11-15T14:12:52.501Z,54.00
2022-11-15T14:16:14.209Z,53.90
2022-11-15T14:19:37.154Z,57.15
2022-11-15T14:22:53.832Z,57.88
2022-11-15T14:25:58.677Z,57.30
2022-11-15T14:29:26.531Z,60.40
2022-11-15T14:32:39.452Z,59.35
2022-11-15T14:35:42.748Z,58.38
2022-11-15T14:38:46.196Z,59.55
2022-11-15T14:41:49.382Z,63.80
2022-11-15T14:44:53.471Z,59.13
2022-11-15T14:47:58.135Z,114.65
2022-11-15T14:51:01.348Z,110.97
2022-11-15T14:54:04.637Z,63.15
2022-11-15T14:57:08.056Z,78.80
2022-11-15T15:00:12.051Z,66.25
2022-11-15T15:03:19.332Z,65.80
2022-11-15T15:06:22.773Z,69.50
2022-11-15T15:09:26.177Z,73.07
2022-11-15T15:12:30.232Z,70.90
2022-11-15T15:15:36.122Z,78.32
2022-11-15T15:18:40.855Z,83.13
2022-11-15T15:21:44.335Z,80.82
2022-11-15T15:24:49.039Z,84.53
2022-11-15T15:27:52.702Z,76.82
2022-11-15T15:30:56.025Z,76.60
2022-11-15T15:34:00.751Z,77.82
2022-11-15T15:37:20.942Z,78.00
2022-11-15T15:40:29.818Z,74.45
2022-11-15T15:43:33.048Z,88.05
2022-11-15T15:46:36.681Z,91.70
2022-11-15T15:49:41.340Z,85.03
2022-11-15T15:52:44.525Z,83.82
2022-11-15T15:55:47.834Z,89.15
2022-11-15T15:58:53.450Z,85.93
2022-11-15T16:01:56.777Z,82.70
2022-11-15T16:05:01.415Z,87.88
2022-11-15T16:08:04.874Z,94.15
2022-11-15T16:11:08.962Z,96.70
2022-11-15T16:14:12.188Z,105.47
2022-11-15T16:17:20.516Z,126.65
2022-11-15T16:20:37.519Z,128.27
2022-11-15T16:23:41.026Z,108.00
2022-11-15T16:26:44.531Z,100.07
2022-11-15T16:29:48.678Z,92.13
2022-11-15T16:32:52.422Z,93.82
2022-11-15T16:36:00.234Z,98.40
2022-11-15T16:39:05.240Z,89.93
2022-11-15T16:42:08.727Z,101.03
2022-11-15T16:45:14.553Z,90.07
2022-11-15T16:48:25.332Z,89.18
2022-11-15T16:51:30.212Z,111.50
2022-11-15T16:54:33.490Z,101.35
2022-11-15T16:57:36.743Z,105.55
2022-11-15T17:00:40.307Z,112.68
2022-11-15T17:03:43.827Z,103.90
2022-11-15T17:06:50.243Z,111.25
2022-11-15T17:09:54.200Z,110.93
2022-11-15T17:12:57.769Z,107.95
2022-11-15T17:16:09.623Z,111.28
2022-11-15T17:19:17.728Z,106.65
2022-11-15T17:22:23.000Z,115.50
2022-11-15T17:25:26.435Z,118.80
2022-11-15T17:28:29.997Z,97.88
2022-11-15T17:31:34.208Z,92.13
2022-11-15T17:34:37.577Z,92.85
2022-11-15T17:37:42.452Z,90.53
2022-11-15T17:40:45.821Z,93.05
2022-11-15T17:43:49.556Z,96.65
2022-11-15T17:46:52.808Z,96.38
2022-11-15T17:49:56.092Z,96.82
2022-11-15T17:53:02.161Z,98.47
2022-11-15T17:56:06.716Z,102.57
2022-11-15T17:59:14.769Z,105.95
2022-11-15T18:02:20.592Z,182.82
2022-11-15T18:05:26.952Z,126.97
2022-11-15T18:08:31.607Z,96.65
2022-11-15T18:11:38.389Z,98.00
2022-11-15T18:14:41.775Z,103.75
2022-11-15T18:17:45.254Z,94.93
2022-11-15T18:20:48.826Z,99.45
2022-11-15T18:23:55.684Z,95.28
2022-11-15T18:26:59.895Z,126.60
2022-11-15T18:30:03.392Z,118.30
2022-11-15T18:33:06.666Z,153.45
2022-11-15T18:36:16.854Z,146.93
2022-11-15T18:42:39.784Z,97.45
2022-11-15T18:45:45.786Z,90.68
2022-11-15T18:48:54.843Z,88.70
2022-11-15T18:52:08.577Z,93.05
2022-11-15T18:55:31.277Z,84.60
2022-11-15T18:58:39.781Z,83.65
2022-11-15T19:01:52.480Z,84.43
2022-11-15T19:05:09.952Z,76.47
2022-11-15T19:08:22.918Z,86.55
2022-11-15T19:11:37.668Z,79.45
2022-11-15T19:14:50.033Z,84.68
2022-11-15T19:18:30.340Z,88.65
2022-11-15T19:25:22.258Z,95.47
2022-11-15T19:28:48.516Z,103.20
2022-11-15T19:31:57.024Z,97.93
2022-11-15T19:35:02.440Z,102.20
2022-11-15T19:38:14.431Z,101.30
2022-11-15T19:41:23.432Z,102.13
2022-11-15T19:44:51.354Z,96.88
2022-11-15T19:48:14.312Z,102.35
2022-11-15T19:51:36.698Z,101.03
2022-11-15T19:54:46.741Z,117.78
2022-11-15T19:57:56.246Z,110.35
2022-11-15T20:01:21.128Z,111.90
2022-11-15T20:04:32.909Z,108.97
2022-11-15T20:07:39.445Z,108.38
2022-11-15T20:10:47.979Z,115.60
2022-11-15T20:13:51.808Z,109.53
2022-11-15T20:16:57.288Z,101.70
2022-11-15T20:20:01.277Z,102.25
2022-11-15T20:23:07.291Z,96.95
2022-11-15T20:26:11.733Z,103.05
2022-11-15T20:29:16.084Z,103.10
2022-11-15T20:32:21.037Z,102.95
2022-11-15T20:35:24.746Z,127.35
2022-11-15T20:38:28.293Z,111.78
2022-11-15T20:41:33.021Z,117.35
2022-11-15T20:44:36.636Z,113.70
2022-11-15T20:47:41.571Z,112.60
2022-11-15T20:50:46.903Z,117.50
2022-11-15T20:53:50.459Z,120.88
2022-11-15T20:56:55.079Z,119.82
2022-11-15T21:00:04.387Z,107.68
2022-11-15T21:03:10.876Z,104.53
2022-11-15T21:06:14.660Z,98.72
2022-11-15T21:09:35.547Z,96.80
2022-11-15T21:12:38.852Z,88.00
2022-11-15T21:15:42.465Z,87.18
2022-11-15T21:18:47.258Z,82.80
2022-11-15T21:21:50.990Z,83.13
2022-11-15T21:24:54.662Z,81.85
2022-11-15T21:27:59.427Z,86.00
2022-11-15T21:31:02.905Z,79.80
2022-11-15T21:34:07.938Z,86.57
2022-11-15T21:37:12.842Z,82.72
2022-11-15T21:40:25.439Z,84.53
2022-11-15T21:43:29.782Z,77.22
2022-11-15T21:46:33.974Z,71.30
2022-11-15T21:49:38.680Z,79.97
2022-11-15T21:52:42.070Z,84.35
2022-11-15T21:55:45.847Z,92.57
2022-11-15T21:58:49.948Z,85.88
2022-11-15T22:02:10.577Z,91.88
2022-11-15T22:08:37.386Z,72.57
2022-11-15T22:11:41.245Z,75.75
2022-11-15T22:14:45.286Z,76.25
2022-11-15T22:18:01.305Z,81.45
2022-11-15T22:21:08.081Z,85.38
2022-11-15T22:24:11.705Z,74.13
2022-11-15T22:27:15.210Z,92.60
2022-11-15T22:30:19.593Z,101.03
2022-11-15T22:33:26.605Z,82.10
2022-11-15T22:36:46.757Z,75.25
2022-11-15T22:39:55.521Z,72.95
2022-11-15T22:42:58.985Z,74.63
2022-11-15T22:46:03.942Z,72.88
2022-11-15T22:49:09.330Z,70.75
2022-11-15T22:52:14.582Z,65.35
2022-11-15T22:55:18.576Z,63.20
2022-11-15T22:58:22.796Z,63.00
2022-11-15T23:01:26.197Z,59.85
2022-11-15T23:04:30.086Z,58.65
2022-11-15T23:07:35.536Z,57.50
2022-11-15T23:10:56.799Z,55.63
2022-11-15T23:14:00.465Z,52.72
2022-11-15T23:17:04.092Z,53.40
2022-11-15T23:20:36.443Z,49.75
2022-11-15T23:23:33.698Z,52.30
2022-11-15T23:26:38.198Z,51.67
2022-11-15T23:29:55.404Z,53.53
2022-11-15T23:33:16.145Z,51.65
2022-11-15T23:36:19.634Z,51.30
2022-11-15T23:39:24.633Z,50.40
2022-11-15T23:42:28.155Z,53.33
2022-11-15T23:45:31.688Z,51.17
2022-11-15T23:48:35.587Z,52.33
2022-11-15T23:51:39.418Z,49.42
2022-11-15T23:54:44.370Z,47.65
2022-11-15T23:57:47.962Z,46.72
